createdAt,value
2023-05-21T00:01:25.646Z,96450.84
2023-05-21T00:03:52.688Z,96446.47
2023-05-21T00:06:20.952Z,96450.66
2023-05-21T00:08:48.100Z,96444.19
2023-05-21T00:11:14.939Z,96442.94
2023-05-21T00:13:42.163Z,96443.59
2023-05-21T00:16:10.991Z,96437.97
2023-05-21T00:18:39.438Z,96444.63
2023-05-21T00:21:06.709Z,96431.53
2023-05-21T00:23:34.082Z,96430.88
2023-05-21T00:26:01.290Z,96435.72
2023-05-21T00:28:28.199Z,96432.34
2023-05-21T00:30:55.045Z,96429.22
2023-05-21T00:33:22.538Z,96423.19
2023-05-21T00:35:49.410Z,96422.56
2023-05-21T00:38:18.480Z,96428.22
2023-05-21T00:40:45.474Z,96420.47
2023-05-21T00:43:14.394Z,96421.50
2023-05-21T00:45:44.668Z,96416.50
2023-05-21T00:48:12.978Z,96411.50
2023-05-21T00:50:40.637Z,96409.84
2023-05-21T00:53:11.386Z,96411.94
2023-05-21T00:55:38.616Z,96401.50
2023-05-21T00:58:06.612Z,96410.88
2023-05-21T01:00:40.588Z,96400.47
2023-05-21T01:03:08.079Z,96402.34
2023-05-21T01:05:35.474Z,96395.47
2023-05-21T01:08:03.197Z,96394.66
2023-05-21T01:10:30.835Z,96395.06
2023-05-21T01:12:59.125Z,96397.13
2023-05-21T01:15:27.366Z,96400.88
2023-05-21T01:17:55.779Z,96391.31
2023-05-21T01:20:24.621Z,96393.41
2023-05-21T01:22:54.069Z,96396.31
2023-05-21T01:25:24.094Z,96392.16
2023-05-21T01:27:51.472Z,96398.00
2023-05-21T01:30:20.046Z,96396.97
2023-05-21T01:33:17.486Z,96395.28
2023-05-21T01:36:08.900Z,96382.16
2023-05-21T01:38:49.322Z,96383.38
2023-05-21T01:41:19.952Z,96381.53
2023-05-21T01:43:48.015Z,96377.13
2023-05-21T01:46:20.378Z,96373.00
2023-05-21T01:48:49.968Z,96381.31
2023-05-21T01:51:17.109Z,96376.72
2023-05-21T01:53:43.954Z,96369.66
2023-05-21T01:56:11.252Z,96379.66
2023-05-21T01:58:38.163Z,96378.00
2023-05-21T02:01:05.596Z,96371.09
2023-05-21T02:03:32.884Z,96370.69
2023-05-21T02:05:59.828Z,96376.31
2023-05-21T02:08:27.834Z,96370.06
2023-05-21T02:10:55.563Z,96368.41
2023-05-21T02:13:25.173Z,96374.03
2023-05-21T02:15:54.442Z,96373.19
2023-05-21T02:18:21.782Z,96367.16
2023-05-21T02:20:48.662Z,96366.53
2023-05-21T02:23:15.677Z,96369.22
2023-05-21T02:25:42.517Z,96365.91
2023-05-21T02:28:09.441Z,96366.94
2023-05-21T02:30:36.696Z,96364.44
2023-05-21T02:33:03.665Z,96356.53
2023-05-21T02:35:30.727Z,96360.25
2023-05-21T02:37:59.264Z,96357.56
2023-05-21T02:40:26.394Z,96362.13
2023-05-21T02:42:53.293Z,96352.56
2023-05-21T02:45:21.633Z,96352.75
2023-05-21T02:47:48.618Z,96351.94
2023-05-21T02:50:18.458Z,96359.63
2023-05-21T02:52:52.349Z,96355.69
2023-05-21T02:55:19.457Z,96352.97
2023-05-21T02:57:46.287Z,96356.53
2023-05-21T03:00:14.174Z,96356.53
2023-05-21T03:02:43.240Z,96358.19
2023-05-21T03:05:10.520Z,96358.00
2023-05-21T03:07:37.382Z,96357.78
2023-05-21T03:10:05.386Z,96351.31
2023-05-21T03:12:32.301Z,96353.00
2023-05-21T03:15:00.813Z,96355.50
2023-05-21T03:17:28.313Z,96346.53
2023-05-21T03:19:55.911Z,96350.28
2023-05-21T03:22:22.849Z,96345.06
2023-05-21T03:24:50.109Z,96343.41
2023-05-21T03:27:18.313Z,96344.63
2023-05-21T03:29:46.008Z,96347.56
2023-05-21T03:32:13.521Z,96347.13
2023-05-21T03:34:41.035Z,96342.94
2023-05-21T03:37:08.388Z,96345.84
2023-05-21T03:39:35.440Z,96356.06
2023-05-21T03:42:02.573Z,96354.38
2023-05-21T03:44:46.554Z,96346.69
2023-05-21T03:47:30.446Z,96343.75
2023-05-21T03:49:58.455Z,96346.69
2023-05-21T03:52:25.422Z,96345.03
2023-05-21T03:54:52.454Z,96346.25
2023-05-21T03:57:19.396Z,96352.50
2023-05-21T03:59:47.626Z,96348.78
2023-05-21T04:02:15.625Z,96351.47
2023-05-21T04:04:44.310Z,96341.66
2023-05-21T04:07:14.533Z,96342.31
2023-05-21T04:09:42.069Z,96357.50
2023-05-21T04:12:08.984Z,96359.16
2023-05-21T04:14:40.117Z,96358.75
2023-05-21T04:17:06.981Z,96350.66
2023-05-21T04:19:34.121Z,96355.66
2023-05-21T04:22:03.690Z,96358.34
2023-05-21T04:24:32.180Z,96366.47
2023-05-21T04:27:13.833Z,96364.81
2023-05-21T04:29:43.200Z,96370.41
2023-05-21T04:32:11.616Z,96369.38
2023-05-21T04:34:39.618Z,96380.84
2023-05-21T04:37:06.902Z,96377.09
2023-05-21T04:39:34.717Z,96383.97
2023-05-21T04:42:03.033Z,96382.72
2023-05-21T04:44:30.266Z,96381.88
2023-05-21T04:46:58.729Z,96391.88
2023-05-21T04:49:25.716Z,96384.59
2023-05-21T04:51:52.617Z,96386.25
2023-05-21T04:54:20.426Z,96385.22
2023-05-21T04:56:47.324Z,96385.84
2023-05-21T04:59:14.931Z,96387.34
2023-05-21T05:01:43.824Z,96383.19
2023-05-21T05:04:10.776Z,96388.19
2023-05-21T05:06:37.677Z,96381.34
2023-05-21T05:09:05.402Z,96387.13
2023-05-21T05:11:32.277Z,96390.91
2023-05-21T05:13:59.165Z,96392.16
2023-05-21T05:16:26.068Z,96388.19
2023-05-21T05:18:56.354Z,96384.84
2023-05-21T05:21:24.056Z,96380.91
2023-05-21T05:23:51.088Z,96395.28
2023-05-21T05:26:19.616Z,96390.28
2023-05-21T05:28:46.732Z,96382.97
2023-05-21T05:31:14.200Z,96385.91
2023-05-21T05:33:43.224Z,96380.88
2023-05-21T05:36:11.747Z,96382.97
2023-05-21T05:38:38.760Z,96385.06
2023-05-21T05:41:05.622Z,96381.47
2023-05-21T05:43:32.533Z,96381.66
2023-05-21T05:46:00.562Z,96378.97
2023-05-21T05:48:27.550Z,96383.34
2023-05-21T05:50:57.121Z,96384.19
2023-05-21T05:53:25.765Z,96392.28
2023-05-21T05:55:53.179Z,96380.38
2023-05-21T05:58:20.120Z,96390.97
2023-05-21T06:01:19.566Z,96382.19
2023-05-21T06:03:47.417Z,96386.53
2023-05-21T06:06:17.167Z,96390.91
2023-05-21T06:08:44.762Z,96393.16
2023-05-21T06:11:12.533Z,96390.19
2023-05-21T06:13:39.445Z,96399.72
2023-05-21T06:16:07.522Z,96391.38
2023-05-21T06:18:34.503Z,96396.53
2023-05-21T06:21:01.542Z,96394.41
2023-05-21T06:23:28.831Z,96397.91
2023-05-21T06:25:55.776Z,96395.75
2023-05-21T06:28:22.966Z,96402.38
2023-05-21T06:30:50.725Z,96389.13
2023-05-21T06:33:17.715Z,96397.16
2023-05-21T06:35:44.639Z,96392.91
2023-05-21T06:38:12.273Z,96393.22
2023-05-21T06:40:39.157Z,96386.69
2023-05-21T06:43:08.135Z,96383.47
2023-05-21T06:45:53.507Z,96372.06
2023-05-21T06:48:36.004Z,96387.03
2023-05-21T06:51:02.818Z,96380.22
2023-05-21T06:53:29.692Z,96388.91
2023-05-21T06:55:56.579Z,96385.66
2023-05-21T06:58:49.558Z,96393.31
2023-05-21T07:01:17.096Z,96393.41
2023-05-21T07:03:44.283Z,96390.72
2023-05-21T07:06:11.383Z,96390.56
2023-05-21T07:08:38.242Z,96394.41
2023-05-21T07:11:05.118Z,96389.81
2023-05-21T07:13:32.301Z,96380.63
2023-05-21T07:15:59.214Z,96385.88
2023-05-21T07:18:27.407Z,96378.56
2023-05-21T07:20:54.740Z,96386.97
2023-05-21T07:23:21.641Z,96380.72
2023-05-21T07:25:48.511Z,96384.53
2023-05-21T07:28:15.471Z,96386.41
2023-05-21T07:30:42.564Z,96386.66
2023-05-21T07:33:13.906Z,96383.34
2023-05-21T07:35:40.970Z,96384.63
2023-05-21T07:38:08.062Z,96385.91
2023-05-21T07:40:34.963Z,96386.63
2023-05-21T07:43:03.209Z,96386.25
2023-05-21T07:45:31.287Z,96385.06
2023-05-21T07:47:58.403Z,96387.41
2023-05-21T07:50:26.607Z,96386.69
2023-05-21T07:52:54.598Z,96384.03
2023-05-21T07:55:21.698Z,96388.00
2023-05-21T07:57:49.385Z,96385.38
2023-05-21T08:00:19.022Z,96390.94
2023-05-21T08:02:53.506Z,96386.13
2023-05-21T08:05:23.367Z,96382.44
2023-05-21T08:07:50.654Z,96384.44
2023-05-21T08:10:19.476Z,96368.94
2023-05-21T08:12:48.434Z,96375.59
2023-05-21T08:15:15.381Z,96377.91
2023-05-21T08:17:46.014Z,96376.47
2023-05-21T08:20:14.287Z,96383.41
2023-05-21T08:22:43.673Z,96376.16
2023-05-21T08:25:11.074Z,96385.06
2023-05-21T08:27:38.293Z,96376.09
2023-05-21T08:30:06.772Z,96374.28
2023-05-21T08:32:33.676Z,96374.94
2023-05-21T08:35:01.681Z,96375.84
2023-05-21T08:37:44.020Z,96381.16
2023-05-21T08:40:19.541Z,96380.41
2023-05-21T08:42:49.779Z,96381.78
2023-05-21T08:45:38.066Z,96389.25
2023-05-21T08:48:05.961Z,96378.44
2023-05-21T08:50:34.686Z,96386.28
2023-05-21T08:53:15.798Z,96385.19
2023-05-21T08:55:47.021Z,96384.94
2023-05-21T08:58:14.707Z,96385.28
2023-05-21T09:00:42.038Z,96388.34
2023-05-21T09:03:12.260Z,96397.16
2023-05-21T09:05:45.012Z,96392.00
2023-05-21T09:08:35.907Z,96385.94
2023-05-21T09:11:07.022Z,96389.44
2023-05-21T09:13:44.957Z,96398.78
2023-05-21T09:16:19.252Z,96399.13
2023-05-21T09:18:46.163Z,96393.97
2023-05-21T09:21:29.778Z,96392.63
2023-05-21T09:24:04.762Z,96395.47
2023-05-21T09:26:31.951Z,96397.09
2023-05-21T09:29:03.634Z,96398.25
2023-05-21T09:31:30.706Z,96404.63
2023-05-21T09:33:58.788Z,96403.03
2023-05-21T09:36:29.271Z,96405.84
2023-05-21T09:38:58.288Z,96404.69
2023-05-21T09:41:33.642Z,96402.16
2023-05-21T09:44:02.428Z,96403.13
2023-05-21T09:46:41.341Z,96398.47
2023-05-21T09:49:24.696Z,96398.81
2023-05-21T09:51:56.713Z,96404.66
2023-05-21T09:54:24.893Z,96409.94
2023-05-21T09:56:55.284Z,96406.69
2023-05-21T09:59:22.329Z,96408.34
2023-05-21T10:01:53.031Z,96410.75
2023-05-21T10:04:21.219Z,96411.03
2023-05-21T10:06:48.957Z,96411.28
2023-05-21T10:09:19.117Z,96403.56
2023-05-21T10:11:49.489Z,96406.00
2023-05-21T10:14:22.372Z,96407.03
2023-05-21T10:16:50.356Z,96411.66
2023-05-21T10:19:17.994Z,96411.06
2023-05-21T10:21:46.217Z,96399.78
2023-05-21T10:24:13.711Z,96399.47
2023-05-21T10:26:41.832Z,96398.91
2023-05-21T10:29:10.117Z,96404.94
2023-05-21T10:31:39.175Z,96400.06
2023-05-21T10:34:06.337Z,96400.97
2023-05-21T10:36:34.289Z,96404.28
2023-05-21T10:39:03.011Z,96398.03
2023-05-21T10:41:46.081Z,96393.63
2023-05-21T10:44:44.422Z,96396.94
2023-05-21T10:47:46.061Z,96395.34
2023-05-21T10:50:57.886Z,96398.72
2023-05-21T10:53:49.046Z,96393.09
2023-05-21T10:56:38.211Z,96396.22
2023-05-21T10:59:31.861Z,96388.25
2023-05-21T11:01:59.368Z,96397.47
2023-05-21T11:04:30.942Z,96392.31
2023-05-21T11:06:59.295Z,96388.03
2023-05-21T11:09:26.852Z,96386.72
2023-05-21T11:11:58.683Z,96396.91
2023-05-21T11:14:58.118Z,96392.00
2023-05-21T11:17:43.070Z,96389.91
2023-05-21T11:20:14.252Z,96391.69
2023-05-21T11:22:41.250Z,96397.06
2023-05-21T11:25:08.564Z,96394.94
2023-05-21T11:27:42.413Z,96393.03
2023-05-21T11:30:15.841Z,96388.38
2023-05-21T11:33:09.956Z,96389.25
2023-05-21T11:35:44.824Z,96395.31
2023-05-21T11:38:11.682Z,96390.94
2023-05-21T11:40:50.658Z,96391.44
2023-05-21T11:43:18.868Z,96381.84
2023-05-21T11:45:47.260Z,96390.91
2023-05-21T11:48:14.487Z,96388.44
2023-05-21T11:50:44.669Z,96385.94
2023-05-21T11:53:12.200Z,96391.72
2023-05-21T11:55:43.381Z,96396.91
2023-05-21T11:58:14.369Z,96391.09
2023-05-21T12:00:41.450Z,96392.81
2023-05-21T12:03:12.843Z,96393.94
2023-05-21T12:05:48.052Z,96397.22
2023-05-21T12:08:27.743Z,96397.00
2023-05-21T12:10:59.944Z,96398.41
2023-05-21T12:13:27.898Z,96399.56
2023-05-21T12:15:54.807Z,96401.81
2023-05-21T12:18:22.170Z,96398.81
2023-05-21T12:20:49.747Z,96401.03
2023-05-21T12:23:25.870Z,96396.34
2023-05-21T12:25:53.663Z,96387.88
2023-05-21T12:28:24.639Z,96388.69
2023-05-21T12:30:51.563Z,96397.81
2023-05-21T12:33:19.005Z,96397.56
2023-05-21T12:35:50.362Z,96394.84
2023-05-21T12:38:17.440Z,96389.91
2023-05-21T12:40:45.434Z,96386.66
2023-05-21T12:43:12.418Z,96395.72
2023-05-21T12:45:39.667Z,96389.94
2023-05-21T12:48:06.955Z,96391.59
2023-05-21T12:50:35.594Z,96395.75
2023-05-21T12:53:02.878Z,96393.28
2023-05-21T12:55:31.663Z,96399.34
2023-05-21T12:58:08.864Z,96396.56
2023-05-21T13:00:36.854Z,96392.72
2023-05-21T13:03:07.152Z,96392.75
2023-05-21T13:05:34.635Z,96391.34
2023-05-21T13:08:01.707Z,96389.97
2023-05-21T13:10:28.656Z,96390.50
2023-05-21T13:12:55.699Z,96393.81
2023-05-21T13:15:22.602Z,96389.94
2023-05-21T13:17:50.844Z,96387.72
2023-05-21T13:20:23.698Z,96381.66
2023-05-21T13:22:52.022Z,96391.00
2023-05-21T13:25:22.012Z,96391.00
2023-05-21T13:27:50.372Z,96383.56
2023-05-21T13:30:18.728Z,96391.00
2023-05-21T13:32:45.939Z,96386.28
2023-05-21T13:35:12.951Z,96387.63
2023-05-21T13:37:41.296Z,96391.47
2023-05-21T13:40:14.857Z,96392.84
2023-05-21T13:42:46.961Z,96388.13
2023-05-21T13:45:17.673Z,96388.66
2023-05-21T13:47:46.891Z,96391.94
2023-05-21T13:50:14.078Z,96394.16
2023-05-21T13:52:41.165Z,96393.88
2023-05-21T13:55:08.889Z,96398.00
2023-05-21T13:57:35.912Z,96388.59
2023-05-21T14:00:03.801Z,96399.63
2023-05-21T14:02:34.665Z,96395.25
2023-05-21T14:05:01.743Z,96404.63
2023-05-21T14:07:28.674Z,96400.22
2023-05-21T14:09:55.999Z,96399.41
2023-05-21T14:12:22.950Z,96404.94
2023-05-21T14:14:49.932Z,96399.66
2023-05-21T14:17:17.093Z,96395.28
2023-05-21T14:19:43.978Z,96397.22
2023-05-21T14:22:11.216Z,96395.31
2023-05-21T14:24:38.120Z,96395.03
2023-05-21T14:27:05.177Z,96390.91
2023-05-21T14:29:33.169Z,96385.69
2023-05-21T14:32:00.118Z,96395.06
2023-05-21T14:34:27.239Z,96385.13
2023-05-21T14:36:54.120Z,96377.97
2023-05-21T14:39:20.969Z,96382.09
2023-05-21T14:41:47.805Z,96380.75
2023-05-21T14:44:14.635Z,96378.53
2023-05-21T14:46:41.915Z,96370.28
2023-05-21T14:49:08.972Z,96378.00
2023-05-21T14:51:35.807Z,96376.66
2023-05-21T14:54:02.671Z,96376.09
2023-05-21T14:56:29.555Z,96373.06
2023-05-21T14:58:56.485Z,96378.34
2023-05-21T15:01:23.772Z,96375.00
2023-05-21T15:03:51.113Z,96369.78
2023-05-21T15:06:18.266Z,96367.56
2023-05-21T15:08:45.123Z,96369.78
2023-05-21T15:11:11.933Z,96366.78
2023-05-21T15:13:39.504Z,96371.72
2023-05-21T15:16:06.719Z,96373.94
2023-05-21T15:18:33.949Z,96365.41
2023-05-21T15:21:00.798Z,96374.22
2023-05-21T15:23:27.744Z,96372.84
2023-05-21T15:25:55.522Z,96370.38
2023-05-21T15:28:22.970Z,96370.09
2023-05-21T15:30:49.864Z,96367.63
2023-05-21T15:33:16.779Z,96376.19
2023-05-21T15:35:44.273Z,96373.69
2023-05-21T15:38:11.684Z,96370.41
